sensor_id;sensor_type;location;lat;lon;timestamp;temperature;humidity
6355;DHT22;3210;48.708;9.030;2023-08-17T00:01:12;18.60;99.90
6355;DHT22;3210;48.708;9.030;2023-08-17T00:03:39;18.70;1.00
6355;DHT22;3210;48.708;9.030;2023-08-17T00:06:05;18.70;1.00
6355;DHT22;3210;48.708;9.030;2023-08-17T00:08:32;18.60;1.00
6355;DHT22;3210;48.708;9.030;2023-08-17T00:10:59;18.60;1.00
6355;DHT22;3210;48.708;9.030;2023-08-17T00:13:26;18.50;95.70
6355;DHT22;3210;48.708;9.030;2023-08-17T00:15:53;18.40;99.90
6355;DHT22;3210;48.708;9.030;2023-08-17T00:18:21;18.40;10.30
6355;DHT22;3210;48.708;9.030;2023-08-17T00:20:47;18.50;20.50
6355;DHT22;3210;48.708;9.030;2023-08-17T00:23:14;18.50;2.50
6355;DHT22;3210;48.708;9.030;2023-08-17T00:25:41;18.40;1.00
6355;DHT22;3210;48.708;9.030;2023-08-17T00:28:08;18.40;1.00
6355;DHT22;3210;48.708;9.030;2023-08-17T00:30:35;18.30;99.90
6355;DHT22;3210;48.708;9.030;2023-08-17T00:33:03;18.30;99.90
6355;DHT22;3210;48.708;9.030;2023-08-17T00:35:31;18.30;99.90
6355;DHT22;3210;48.708;9.030;2023-08-17T00:37:59;18.20;99.90
6355;DHT22;3210;48.708;9.030;2023-08-17T00:40:26;18.20;99.90
6355;DHT22;3210;48.708;9.030;2023-08-17T00:42:53;18.30;99.90
6355;DHT22;3210;48.708;9.030;2023-08-17T00:45:20;18.40;99.90
6355;DHT22;3210;48.708;9.030;2023-08-17T00:47:48;18.50;99.90
6355;DHT22;3210;48.708;9.030;2023-08-17T00:50:15;18.50;99.90
6355;DHT22;3210;48.708;9.030;2023-08-17T00:52:44;18.40;1.00
6355;DHT22;3210;48.708;9.030;2023-08-17T00:55:11;18.10;99.90
6355;DHT22;3210;48.708;9.030;2023-08-17T00:57:40;18.10;99.90
6355;DHT22;3210;48.708;9.030;2023-08-17T01:00:09;18.00;99.90
6355;DHT22;3210;48.708;9.030;2023-08-17T01:02:37;17.90;99.90
6355;DHT22;3210;48.708;9.030;2023-08-17T01:05:04;18.00;43.30
6355;DHT22;3210;48.708;9.030;2023-08-17T01:07:31;17.90;99.90
6355;DHT22;3210;48.708;9.030;2023-08-17T01:10:00;17.90;99.90
6355;DHT22;3210;48.708;9.030;2023-08-17T01:12:32;17.70;1.00
6355;DHT22;3210;48.708;9.030;2023-08-17T01:15:09;17.70;1.00
6355;DHT22;3210;48.708;9.030;2023-08-17T01:17:40;17.70;99.90
6355;DHT22;3210;48.708;9.030;2023-08-17T01:20:10;17.70;64.60
6355;DHT22;3210;48.708;9.030;2023-08-17T01:22:41;17.60;99.90
6355;DHT22;3210;48.708;9.030;2023-08-17T01:25:10;17.50;99.90
6355;DHT22;3210;48.708;9.030;2023-08-17T01:27:38;17.60;1.00
6355;DHT22;3210;48.708;9.030;2023-08-17T01:30:07;17.50;1.00
6355;DHT22;3210;48.708;9.030;2023-08-17T01:32:39;17.50;99.90
6355;DHT22;3210;48.708;9.030;2023-08-17T01:35:12;17.50;1.00
6355;DHT22;3210;48.708;9.030;2023-08-17T01:37:43;17.60;1.00
6355;DHT22;3210;48.708;9.030;2023-08-17T01:40:12;17.50;1.00
6355;DHT22;3210;48.708;9.030;2023-08-17T01:42:41;17.60;1.00
6355;DHT22;3210;48.708;9.030;2023-08-17T01:45:09;17.70;1.00
6355;DHT22;3210;48.708;9.030;2023-08-17T01:47:35;17.80;1.00
6355;DHT22;3210;48.708;9.030;2023-08-17T01:50:02;17.80;99.90
6355;DHT22;3210;48.708;9.030;2023-08-17T01:52:29;17.70;97.20
6355;DHT22;3210;48.708;9.030;2023-08-17T01:54:56;17.80;99.90
6355;DHT22;3210;48.708;9.030;2023-08-17T01:57:24;17.90;99.90
6355;DHT22;3210;48.708;9.030;2023-08-17T01:59:51;17.90;99.90
6355;DHT22;3210;48.708;9.030;2023-08-17T02:02:17;17.90;99.90
6355;DHT22;3210;48.708;9.030;2023-08-17T02:04:44;17.90;1.00
6355;DHT22;3210;48.708;9.030;2023-08-17T02:07:11;17.90;99.90
6355;DHT22;3210;48.708;9.030;2023-08-17T02:09:38;17.90;1.00
6355;DHT22;3210;48.708;9.030;2023-08-17T02:12:05;17.80;1.00
6355;DHT22;3210;48.708;9.030;2023-08-17T02:14:35;17.90;99.90
6355;DHT22;3210;48.708;9.030;2023-08-17T02:17:01;18.00;1.00
6355;DHT22;3210;48.708;9.030;2023-08-17T02:19:28;18.00;99.90
6355;DHT22;3210;48.708;9.030;2023-08-17T02:21:55;18.00;99.90
6355;DHT22;3210;48.708;9.030;2023-08-17T02:24:22;18.00;99.90
6355;DHT22;3210;48.708;9.030;2023-08-17T02:26:48;18.00;1.00
6355;DHT22;3210;48.708;9.030;2023-08-17T02:29:15;18.10;99.90
6355;DHT22;3210;48.708;9.030;2023-08-17T02:31:43;18.10;99.90
6355;DHT22;3210;48.708;9.030;2023-08-17T02:34:10;18.10;1.00
6355;DHT22;3210;48.708;9.030;2023-08-17T02:36:37;18.10;1.00
6355;DHT22;3210;48.708;9.030;2023-08-17T02:39:04;18.10;99.90
6355;DHT22;3210;48.708;9.030;2023-08-17T02:41:31;18.20;20.60
6355;DHT22;3210;48.708;9.030;2023-08-17T02:43:58;18.30;99.90
6355;DHT22;3210;48.708;9.030;2023-08-17T02:46:24;18.30;1.00
6355;DHT22;3210;48.708;9.030;2023-08-17T02:48:52;18.40;99.90
6355;DHT22;3210;48.708;9.030;2023-08-17T02:51:19;18.40;99.90
6355;DHT22;3210;48.708;9.030;2023-08-17T02:53:46;18.40;99.90
6355;DHT22;3210;48.708;9.030;2023-08-17T02:56:13;18.40;1.00
6355;DHT22;3210;48.708;9.030;2023-08-17T02:58:40;18.30;99.90
6355;DHT22;3210;48.708;9.030;2023-08-17T03:01:07;18.30;99.90
6355;DHT22;3210;48.708;9.030;2023-08-17T03:03:34;18.40;99.90
6355;DHT22;3210;48.708;9.030;2023-08-17T03:06:03;18.40;99.90
6355;DHT22;3210;48.708;9.030;2023-08-17T03:08:30;18.40;99.90
6355;DHT22;3210;48.708;9.030;2023-08-17T03:10:56;18.50;99.90
6355;DHT22;3210;48.708;9.030;2023-08-17T03:13:23;18.70;99.90
6355;DHT22;3210;48.708;9.030;2023-08-17T03:15:50;18.60;99.90
6355;DHT22;3210;48.708;9.030;2023-08-17T03:18:17;18.70;1.00
6355;DHT22;3210;48.708;9.030;2023-08-17T03:20:44;18.80;99.90
6355;DHT22;3210;48.708;9.030;2023-08-17T03:23:12;18.80;99.90
6355;DHT22;3210;48.708;9.030;2023-08-17T03:25:39;18.80;99.90
6355;DHT22;3210;48.708;9.030;2023-08-17T03:28:06;18.80;99.90
6355;DHT22;3210;48.708;9.030;2023-08-17T03:30:33;18.80;99.90
6355;DHT22;3210;48.708;9.030;2023-08-17T03:33:00;18.80;99.90
6355;DHT22;3210;48.708;9.030;2023-08-17T03:35:26;18.90;99.90
6355;DHT22;3210;48.708;9.030;2023-08-17T03:37:53;18.90;1.00
6355;DHT22;3210;48.708;9.030;2023-08-17T03:40:21;18.90;99.90
6355;DHT22;3210;48.708;9.030;2023-08-17T03:42:48;19.00;1.00
6355;DHT22;3210;48.708;9.030;2023-08-17T03:45:15;18.90;1.00
6355;DHT22;3210;48.708;9.030;2023-08-17T03:47:42;19.00;1.00
6355;DHT22;3210;48.708;9.030;2023-08-17T03:50:09;18.90;99.90
6355;DHT22;3210;48.708;9.030;2023-08-17T03:52:36;18.80;99.90
6355;DHT22;3210;48.708;9.030;2023-08-17T03:55:03;18.80;1.00
6355;DHT22;3210;48.708;9.030;2023-08-17T03:57:33;18.60;1.00
6355;DHT22;3210;48.708;9.030;2023-08-17T04:00:00;18.60;1.00
6355;DHT22;3210;48.708;9.030;2023-08-17T04:02:27;18.50;99.90
6355;DHT22;3210;48.708;9.030;2023-08-17T04:04:54;18.50;99.90
6355;DHT22;3210;48.708;9.030;2023-08-17T04:07:21;18.50;99.90
6355;DHT22;3210;48.708;9.030;2023-08-17T04:09:48;18.50;1.00
6355;DHT22;3210;48.708;9.030;2023-08-17T04:12:15;18.50;99.90
6355;DHT22;3210;48.708;9.030;2023-08-17T04:14:44;18.50;99.90
6355;DHT22;3210;48.708;9.030;2023-08-17T04:17:11;18.70;1.00
6355;DHT22;3210;48.708;9.030;2023-08-17T04:19:38;18.80;1.00
6355;DHT22;3210;48.708;9.030;2023-08-17T04:22:05;18.80;99.90
6355;DHT22;3210;48.708;9.030;2023-08-17T04:24:32;18.70;99.90
6355;DHT22;3210;48.708;9.030;2023-08-17T04:26:58;18.60;99.90
6355;DHT22;3210;48.708;9.030;2023-08-17T04:29:25;18.60;1.00
6355;DHT22;3210;48.708;9.030;2023-08-17T04:31:53;18.80;1.00
6355;DHT22;3210;48.708;9.030;2023-08-17T04:34:20;18.70;99.90
6355;DHT22;3210;48.708;9.030;2023-08-17T04:36:47;18.70;99.90
6355;DHT22;3210;48.708;9.030;2023-08-17T04:39:13;18.70;99.90
6355;DHT22;3210;48.708;9.030;2023-08-17T04:41:40;18.80;1.00
6355;DHT22;3210;48.708;9.030;2023-08-17T04:44:07;18.80;99.90
6355;DHT22;3210;48.708;9.030;2023-08-17T04:46:34;18.80;99.90
6355;DHT22;3210;48.708;9.030;2023-08-17T04:49:02;18.80;99.90
6355;DHT22;3210;48.708;9.030;2023-08-17T04:51:30;18.80;1.00
6355;DHT22;3210;48.708;9.030;2023-08-17T04:53:57;18.80;1.00
6355;DHT22;3210;48.708;9.030;2023-08-17T04:56:23;18.70;73.50
6355;DHT22;3210;48.708;9.030;2023-08-17T04:58:50;18.60;99.90
6355;DHT22;3210;48.708;9.030;2023-08-17T05:01:17;18.70;1.00
6355;DHT22;3210;48.708;9.030;2023-08-17T05:03:44;18.60;99.90
6355;DHT22;3210;48.708;9.030;2023-08-17T05:06:13;18.60;1.00
6355;DHT22;3210;48.708;9.030;2023-08-17T05:08:40;18.70;1.00
6355;DHT22;3210;48.708;9.030;2023-08-17T05:11:07;18.60;99.90
6355;DHT22;3210;48.708;9.030;2023-08-17T05:13:34;18.60;99.90
6355;DHT22;3210;48.708;9.030;2023-08-17T05:16:01;18.60;1.00
6355;DHT22;3210;48.708;9.030;2023-08-17T05:18:27;18.70;1.00
6355;DHT22;3210;48.708;9.030;2023-08-17T05:20:54;18.80;1.00
6355;DHT22;3210;48.708;9.030;2023-08-17T05:23:22;18.90;99.90
6355;DHT22;3210;48.708;9.030;2023-08-17T05:25:49;19.00;99.90
6355;DHT22;3210;48.708;9.030;2023-08-17T05:28:16;19.00;1.00
6355;DHT22;3210;48.708;9.030;2023-08-17T05:30:43;19.00;99.90
6355;DHT22;3210;48.708;9.030;2023-08-17T05:33:09;19.00;1.00
6355;DHT22;3210;48.708;9.030;2023-08-17T05:35:36;19.00;1.00
6355;DHT22;3210;48.708;9.030;2023-08-17T05:38:03;19.00;1.00
6355;DHT22;3210;48.708;9.030;2023-08-17T05:40:32;19.10;99.90
6355;DHT22;3210;48.708;9.030;2023-08-17T05:42:58;19.10;99.90
6355;DHT22;3210;48.708;9.030;2023-08-17T05:45:25;19.10;1.00
6355;DHT22;3210;48.708;9.030;2023-08-17T05:47:53;19.10;99.60
6355;DHT22;3210;48.708;9.030;2023-08-17T05:50:19;19.20;99.90
6355;DHT22;3210;48.708;9.030;2023-08-17T05:52:46;19.00;99.90
6355;DHT22;3210;48.708;9.030;2023-08-17T05:55:13;18.80;36.70
6355;DHT22;3210;48.708;9.030;2023-08-17T05:57:41;18.90;99.90
6355;DHT22;3210;48.708;9.030;2023-08-17T06:00:09;18.90;72.70
6355;DHT22;3210;48.708;9.030;2023-08-17T06:02:38;19.00;1.00
6355;DHT22;3210;48.708;9.030;2023-08-17T06:05:05;19.00;99.90
6355;DHT22;3210;48.708;9.030;2023-08-17T06:07:33;19.00;99.90
6355;DHT22;3210;48.708;9.030;2023-08-17T06:09:59;19.10;1.00
6355;DHT22;3210;48.708;9.030;2023-08-17T06:12:26;19.10;99.90
6355;DHT22;3210;48.708;9.030;2023-08-17T06:14:54;19.20;99.90
6355;DHT22;3210;48.708;9.030;2023-08-17T06:17:21;19.10;99.90
6355;DHT22;3210;48.708;9.030;2023-08-17T06:19:48;19.10;1.00
6355;DHT22;3210;48.708;9.030;2023-08-17T06:22:15;19.20;99.90
6355;DHT22;3210;48.708;9.030;2023-08-17T06:24:41;19.20;33.30
6355;DHT22;3210;48.708;9.030;2023-08-17T06:27:08;19.30;1.00
6355;DHT22;3210;48.708;9.030;2023-08-17T06:29:35;19.40;99.90
6355;DHT22;3210;48.708;9.030;2023-08-17T06:32:04;19.50;1.00
6355;DHT22;3210;48.708;9.030;2023-08-17T06:34:30;19.60;1.00
6355;DHT22;3210;48.708;9.030;2023-08-17T06:36:58;19.70;99.90
6355;DHT22;3210;48.708;9.030;2023-08-17T06:39:25;19.70;99.90
6355;DHT22;3210;48.708;9.030;2023-08-17T06:41:52;19.80;99.90
6355;DHT22;3210;48.708;9.030;2023-08-17T06:44:19;19.90;1.00
6355;DHT22;3210;48.708;9.030;2023-08-17T06:46:46;20.00;99.90
6355;DHT22;3210;48.708;9.030;2023-08-17T06:49:14;20.00;1.00
6355;DHT22;3210;48.708;9.030;2023-08-17T06:51:41;20.00;1.00
6355;DHT22;3210;48.708;9.030;2023-08-17T06:54:08;20.10;31.50
6355;DHT22;3210;48.708;9.030;2023-08-17T06:56:35;20.00;99.90
6355;DHT22;3210;48.708;9.030;2023-08-17T06:59:02;20.10;99.90
6355;DHT22;3210;48.708;9.030;2023-08-17T07:01:29;20.10;56.60
6355;DHT22;3210;48.708;9.030;2023-08-17T07:03:56;20.10;1.00
6355;DHT22;3210;48.708;9.030;2023-08-17T07:06:24;20.10;1.00
6355;DHT22;3210;48.708;9.030;2023-08-17T07:08:51;20.20;1.00
6355;DHT22;3210;48.708;9.030;2023-08-17T07:11:18;20.10;1.00
6355;DHT22;3210;48.708;9.030;2023-08-17T07:13:45;20.30;1.00
6355;DHT22;3210;48.708;9.030;2023-08-17T07:16:12;20.40;1.00
6355;DHT22;3210;48.708;9.030;2023-08-17T07:18:39;20.40;1.00
6355;DHT22;3210;48.708;9.030;2023-08-17T07:21:06;20.50;99.90
6355;DHT22;3210;48.708;9.030;2023-08-17T07:23:34;20.70;99.90
6355;DHT22;3210;48.708;9.030;2023-08-17T07:26:01;20.80;99.90
6355;DHT22;3210;48.708;9.030;2023-08-17T07:28:28;21.00;27.40
6355;DHT22;3210;48.708;9.030;2023-08-17T07:30:54;21.10;99.90
6355;DHT22;3210;48.708;9.030;2023-08-17T07:33:22;21.20;1.00
6355;DHT22;3210;48.708;9.030;2023-08-17T07:35:48;21.00;1.00
6355;DHT22;3210;48.708;9.030;2023-08-17T07:38:15;21.00;1.00
6355;DHT22;3210;48.708;9.030;2023-08-17T07:40:43;21.20;99.90
6355;DHT22;3210;48.708;9.030;2023-08-17T07:43:10;21.30;66.00
6355;DHT22;3210;48.708;9.030;2023-08-17T07:45:37;21.30;99.90
6355;DHT22;3210;48.708;9.030;2023-08-17T07:48:04;21.50;1.00
6355;DHT22;3210;48.708;9.030;2023-08-17T07:50:31;21.50;1.00
6355;DHT22;3210;48.708;9.030;2023-08-17T07:52:58;21.60;1.00
6355;DHT22;3210;48.708;9.030;2023-08-17T07:55:26;21.80;99.90
6355;DHT22;3210;48.708;9.030;2023-08-17T07:57:54;21.40;99.90
6355;DHT22;3210;48.708;9.030;2023-08-17T08:00:21;21.40;1.00
6355;DHT22;3210;48.708;9.030;2023-08-17T08:02:48;21.40;1.00
6355;DHT22;3210;48.708;9.030;2023-08-17T08:05:15;21.60;1.00
6355;DHT22;3210;48.708;9.030;2023-08-17T08:07:41;21.80;1.00
6355;DHT22;3210;48.708;9.030;2023-08-17T08:10:09;21.90;1.00
6355;DHT22;3210;48.708;9.030;2023-08-17T08:12:35;21.90;1.00
6355;DHT22;3210;48.708;9.030;2023-08-17T08:15:04;22.00;1.00
6355;DHT22;3210;48.708;9.030;2023-08-17T08:17:31;22.10;1.00
6355;DHT22;3210;48.708;9.030;2023-08-17T08:19:58;22.10;1.00
6355;DHT22;3210;48.708;9.030;2023-08-17T08:22:25;22.20;99.90
6355;DHT22;3210;48.708;9.030;2023-08-17T08:24:51;22.50;99.90
6355;DHT22;3210;48.708;9.030;2023-08-17T08:27:18;22.60;99.90
6355;DHT22;3210;48.708;9.030;2023-08-17T08:29:45;22.50;99.90
6355;DHT22;3210;48.708;9.030;2023-08-17T08:32:13;22.60;99.90
6355;DHT22;3210;48.708;9.030;2023-08-17T08:34:40;22.80;99.90
6355;DHT22;3210;48.708;9.030;2023-08-17T08:37:07;23.00;99.90
6355;DHT22;3210;48.708;9.030;2023-08-17T08:39:48;22.80;99.90
6355;DHT22;3210;48.708;9.030;2023-08-17T08:42:15;22.60;99.90
6355;DHT22;3210;48.708;9.030;2023-08-17T08:44:42;22.70;99.90
6355;DHT22;3210;48.708;9.030;2023-08-17T08:47:09;22.90;99.90
6355;DHT22;3210;48.708;9.030;2023-08-17T08:49:39;23.10;99.90
6355;DHT22;3210;48.708;9.030;2023-08-17T08:52:07;22.90;99.90
6355;DHT22;3210;48.708;9.030;2023-08-17T08:54:35;23.00;99.90
6355;DHT22;3210;48.708;9.030;2023-08-17T08:57:06;23.20;99.90
6355;DHT22;3210;48.708;9.030;2023-08-17T08:59:35;23.30;99.90
6355;DHT22;3210;48.708;9.030;2023-08-17T09:02:10;23.40;99.90
6355;DHT22;3210;48.708;9.030;2023-08-17T09:04:39;23.30;99.90
6355;DHT22;3210;48.708;9.030;2023-08-17T09:07:06;23.40;49.50
6355;DHT22;3210;48.708;9.030;2023-08-17T09:09:35;23.50;36.00
6355;DHT22;3210;48.708;9.030;2023-08-17T09:12:03;23.70;59.60
6355;DHT22;3210;48.708;9.030;2023-08-17T09:14:30;23.90;53.70
6355;DHT22;3210;48.708;9.030;2023-08-17T09:16:57;24.10;48.20
6355;DHT22;3210;48.708;9.030;2023-08-17T09:19:24;24.30;1.00
6355;DHT22;3210;48.708;9.030;2023-08-17T09:21:52;24.20;1.00
6355;DHT22;3210;48.708;9.030;2023-08-17T09:24:19;24.20;1.00
6355;DHT22;3210;48.708;9.030;2023-08-17T09:26:46;24.10;1.00
6355;DHT22;3210;48.708;9.030;2023-08-17T09:29:18;24.40;1.00
6355;DHT22;3210;48.708;9.030;2023-08-17T09:31:45;24.50;1.00
6355;DHT22;3210;48.708;9.030;2023-08-17T09:34:14;24.60;1.00
6355;DHT22;3210;48.708;9.030;2023-08-17T09:36:41;24.70;1.00
6355;DHT22;3210;48.708;9.030;2023-08-17T09:39:09;24.80;1.00
6355;DHT22;3210;48.708;9.030;2023-08-17T09:41:41;25.00;1.00
6355;DHT22;3210;48.708;9.030;2023-08-17T09:44:08;25.20;1.00
6355;DHT22;3210;48.708;9.030;2023-08-17T09:46:35;25.50;1.00
6355;DHT22;3210;48.708;9.030;2023-08-17T09:49:02;25.60;1.00
6355;DHT22;3210;48.708;9.030;2023-08-17T09:51:30;25.70;1.00
6355;DHT22;3210;48.708;9.030;2023-08-17T09:53:57;25.80;1.00
6355;DHT22;3210;48.708;9.030;2023-08-17T09:56:27;25.90;1.00
6355;DHT22;3210;48.708;9.030;2023-08-17T09:58:54;25.40;1.00
6355;DHT22;3210;48.708;9.030;2023-08-17T10:01:21;25.60;1.00
6355;DHT22;3210;48.708;9.030;2023-08-17T10:03:49;25.80;1.00
6355;DHT22;3210;48.708;9.030;2023-08-17T10:06:20;25.90;1.00
6355;DHT22;3210;48.708;9.030;2023-08-17T10:08:50;25.80;1.00
6355;DHT22;3210;48.708;9.030;2023-08-17T10:11:21;25.60;1.00
6355;DHT22;3210;48.708;9.030;2023-08-17T10:13:57;25.70;1.00
6355;DHT22;3210;48.708;9.030;2023-08-17T10:16:31;25.80;1.00
6355;DHT22;3210;48.708;9.030;2023-08-17T10:19:05;26.00;1.00
6355;DHT22;3210;48.708;9.030;2023-08-17T10:21:37;26.40;1.00
6355;DHT22;3210;48.708;9.030;2023-08-17T10:24:07;26.30;1.00
6355;DHT22;3210;48.708;9.030;2023-08-17T10:26:34;26.50;1.00
6355;DHT22;3210;48.708;9.030;2023-08-17T10:29:03;26.60;1.00
6355;DHT22;3210;48.708;9.030;2023-08-17T10:31:34;26.80;1.00
6355;DHT22;3210;48.708;9.030;2023-08-17T10:34:01;26.90;1.00
6355;DHT22;3210;48.708;9.030;2023-08-17T10:36:30;27.10;1.00
6355;DHT22;3210;48.708;9.030;2023-08-17T10:39:25;27.30;1.00
6355;DHT22;3210;48.708;9.030;2023-08-17T10:41:52;27.20;1.00
6355;DHT22;3210;48.708;9.030;2023-08-17T10:44:38;27.20;1.00
6355;DHT22;3210;48.708;9.030;2023-08-17T10:47:19;26.90;1.00
6355;DHT22;3210;48.708;9.030;2023-08-17T10:49:47;27.10;1.00
6355;DHT22;3210;48.708;9.030;2023-08-17T10:52:14;27.30;1.00
6355;DHT22;3210;48.708;9.030;2023-08-17T10:54:42;27.30;1.00
6355;DHT22;3210;48.708;9.030;2023-08-17T10:57:25;27.40;1.00
6355;DHT22;3210;48.708;9.030;2023-08-17T11:00:14;27.30;1.00
6355;DHT22;3210;48.708;9.030;2023-08-17T11:02:43;27.40;1.00
6355;DHT22;3210;48.708;9.030;2023-08-17T11:05:11;27.40;1.00
6355;DHT22;3210;48.708;9.030;2023-08-17T11:07:40;27.70;1.00
6355;DHT22;3210;48.708;9.030;2023-08-17T11:10:27;28.00;1.00
6355;DHT22;3210;48.708;9.030;2023-08-17T11:12:55;28.50;1.00
6355;DHT22;3210;48.708;9.030;2023-08-17T11:15:34;28.70;1.00
6355;DHT22;3210;48.708;9.030;2023-08-17T11:18:03;28.50;1.00
6355;DHT22;3210;48.708;9.030;2023-08-17T11:20:30;28.70;1.00
6355;DHT22;3210;48.708;9.030;2023-08-17T11:22:58;28.80;1.00
6355;DHT22;3210;48.708;9.030;2023-08-17T11:25:25;28.90;1.00
6355;DHT22;3210;48.708;9.030;2023-08-17T11:27:52;28.80;1.00
6355;DHT22;3210;48.708;9.030;2023-08-17T11:30:21;28.80;1.00
6355;DHT22;3210;48.708;9.030;2023-08-17T11:32:50;28.60;1.00
6355;DHT22;3210;48.708;9.030;2023-08-17T11:35:17;28.40;1.00
6355;DHT22;3210;48.708;9.030;2023-08-17T11:37:44;28.30;1.00
6355;DHT22;3210;48.708;9.030;2023-08-17T11:40:11;28.50;1.00
6355;DHT22;3210;48.708;9.030;2023-08-17T11:42:39;28.90;1.00
6355;DHT22;3210;48.708;9.030;2023-08-17T11:45:06;29.20;1.00
6355;DHT22;3210;48.708;9.030;2023-08-17T11:47:34;29.30;1.00
6355;DHT22;3210;48.708;9.030;2023-08-17T11:50:03;29.40;1.00
6355;DHT22;3210;48.708;9.030;2023-08-17T11:52:30;29.60;1.00
6355;DHT22;3210;48.708;9.030;2023-08-17T11:54:58;29.70;1.00
6355;DHT22;3210;48.708;9.030;2023-08-17T11:57:25;29.50;1.00
6355;DHT22;3210;48.708;9.030;2023-08-17T11:59:53;29.30;1.00
6355;DHT22;3210;48.708;9.030;2023-08-17T12:02:21;29.30;1.00
6355;DHT22;3210;48.708;9.030;2023-08-17T12:04:48;29.10;1.00
6355;DHT22;3210;48.708;9.030;2023-08-17T12:07:16;28.90;1.00
6355;DHT22;3210;48.708;9.030;2023-08-17T12:09:44;28.60;1.00
6355;DHT22;3210;48.708;9.030;2023-08-17T12:12:11;28.00;1.00
6355;DHT22;3210;48.708;9.030;2023-08-17T12:14:41;27.80;1.00
6355;DHT22;3210;48.708;9.030;2023-08-17T12:17:10;27.50;1.00
6355;DHT22;3210;48.708;9.030;2023-08-17T12:19:40;27.30;1.00
6355;DHT22;3210;48.708;9.030;2023-08-17T12:22:06;27.30;1.00
6355;DHT22;3210;48.708;9.030;2023-08-17T12:24:35;27.20;1.00
6355;DHT22;3210;48.708;9.030;2023-08-17T12:27:02;27.20;1.00
6355;DHT22;3210;48.708;9.030;2023-08-17T12:29:29;27.20;1.00
6355;DHT22;3210;48.708;9.030;2023-08-17T12:31:57;27.20;1.00
6355;DHT22;3210;48.708;9.030;2023-08-17T12:34:24;27.00;1.00
6355;DHT22;3210;48.708;9.030;2023-08-17T12:36:51;27.00;1.00
6355;DHT22;3210;48.708;9.030;2023-08-17T12:39:18;27.00;1.00
6355;DHT22;3210;48.708;9.030;2023-08-17T12:41:46;27.00;1.00
6355;DHT22;3210;48.708;9.030;2023-08-17T12:44:13;27.10;1.00
6355;DHT22;3210;48.708;9.030;2023-08-17T12:46:40;26.90;1.00
6355;DHT22;3210;48.708;9.030;2023-08-17T12:49:06;26.70;1.00
6355;DHT22;3210;48.708;9.030;2023-08-17T12:51:33;26.40;1.00
6355;DHT22;3210;48.708;9.030;2023-08-17T12:54:00;26.30;1.00
6355;DHT22;3210;48.708;9.030;2023-08-17T12:56:27;25.70;1.00
6355;DHT22;3210;48.708;9.030;2023-08-17T12:58:55;25.20;1.00
6355;DHT22;3210;48.708;9.030;2023-08-17T13:01:22;25.00;10.50
6355;DHT22;3210;48.708;9.030;2023-08-17T13:03:49;24.30;1.00
6355;DHT22;3210;48.708;9.030;2023-08-17T13:06:16;23.70;1.00
6355;DHT22;3210;48.708;9.030;2023-08-17T13:08:42;23.40;1.00
6355;DHT22;3210;48.708;9.030;2023-08-17T13:11:10;23.10;99.90
6355;DHT22;3210;48.708;9.030;2023-08-17T13:13:37;23.00;99.90
6355;DHT22;3210;48.708;9.030;2023-08-17T13:16:05;22.70;99.90
6355;DHT22;3210;48.708;9.030;2023-08-17T13:18:34;22.50;1.00
6355;DHT22;3210;48.708;9.030;2023-08-17T13:21:01;22.40;5.10
6355;DHT22;3210;48.708;9.030;2023-08-17T13:23:28;22.60;99.90
6355;DHT22;3210;48.708;9.030;2023-08-17T13:25:58;22.50;99.90
6355;DHT22;3210;48.708;9.030;2023-08-17T13:28:25;22.50;99.90
6355;DHT22;3210;48.708;9.030;2023-08-17T13:30:51;22.50;99.90
6355;DHT22;3210;48.708;9.030;2023-08-17T13:33:20;22.70;99.90
6355;DHT22;3210;48.708;9.030;2023-08-17T13:35:47;22.80;99.90
6355;DHT22;3210;48.708;9.030;2023-08-17T13:38:14;22.80;99.90
6355;DHT22;3210;48.708;9.030;2023-08-17T13:40:41;22.90;99.90
6355;DHT22;3210;48.708;9.030;2023-08-17T13:43:08;22.90;1.00
6355;DHT22;3210;48.708;9.030;2023-08-17T13:45:38;22.90;99.90
6355;DHT22;3210;48.708;9.030;2023-08-17T13:48:06;22.80;1.00
6355;DHT22;3210;48.708;9.030;2023-08-17T13:50:37;22.90;30.90
6355;DHT22;3210;48.708;9.030;2023-08-17T13:53:04;22.70;59.40
6355;DHT22;3210;48.708;9.030;2023-08-17T13:55:31;22.60;99.90
6355;DHT22;3210;48.708;9.030;2023-08-17T13:57:58;22.80;99.90
6355;DHT22;3210;48.708;9.030;2023-08-17T14:00:25;22.90;99.90
6355;DHT22;3210;48.708;9.030;2023-08-17T14:02:53;22.90;1.00
6355;DHT22;3210;48.708;9.030;2023-08-17T14:05:20;22.90;99.90
6355;DHT22;3210;48.708;9.030;2023-08-17T14:07:48;22.80;1.00
6355;DHT22;3210;48.708;9.030;2023-08-17T14:10:15;22.90;99.90
6355;DHT22;3210;48.708;9.030;2023-08-17T14:12:42;23.00;99.90
6355;DHT22;3210;48.708;9.030;2023-08-17T14:15:09;23.00;99.90
6355;DHT22;3210;48.708;9.030;2023-08-17T14:17:36;23.10;99.90
6355;DHT22;3210;48.708;9.030;2023-08-17T14:20:03;23.10;99.90
6355;DHT22;3210;48.708;9.030;2023-08-17T14:22:31;23.10;99.90
6355;DHT22;3210;48.708;9.030;2023-08-17T14:24:59;23.20;1.00
6355;DHT22;3210;48.708;9.030;2023-08-17T14:27:26;23.10;1.00
6355;DHT22;3210;48.708;9.030;2023-08-17T14:29:52;22.80;1.00
6355;DHT22;3210;48.708;9.030;2023-08-17T14:32:19;22.90;99.90
6355;DHT22;3210;48.708;9.030;2023-08-17T14:34:46;23.20;99.90
6355;DHT22;3210;48.708;9.030;2023-08-17T14:37:13;23.30;1.00
6355;DHT22;3210;48.708;9.030;2023-08-17T14:39:39;23.40;1.00
6355;DHT22;3210;48.708;9.030;2023-08-17T14:42:08;23.70;99.90
6355;DHT22;3210;48.708;9.030;2023-08-17T14:44:34;23.90;99.30
6355;DHT22;3210;48.708;9.030;2023-08-17T14:47:01;24.00;99.90
6355;DHT22;3210;48.708;9.030;2023-08-17T14:49:28;24.30;15.70
6355;DHT22;3210;48.708;9.030;2023-08-17T14:51:55;24.60;1.00
6355;DHT22;3210;48.708;9.030;2023-08-17T14:54:22;24.80;1.00
6355;DHT22;3210;48.708;9.030;2023-08-17T14:56:50;24.90;99.90
6355;DHT22;3210;48.708;9.030;2023-08-17T14:59:18;24.80;99.90
6355;DHT22;3210;48.708;9.030;2023-08-17T15:01:45;24.70;1.00
6355;DHT22;3210;48.708;9.030;2023-08-17T15:04:12;24.90;1.00
6355;DHT22;3210;48.708;9.030;2023-08-17T15:06:39;25.00;99.90
6355;DHT22;3210;48.708;9.030;2023-08-17T15:09:05;24.90;99.90
6355;DHT22;3210;48.708;9.030;2023-08-17T15:11:32;24.70;99.90
6355;DHT22;3210;48.708;9.030;2023-08-17T15:13:59;24.90;1.00
6355;DHT22;3210;48.708;9.030;2023-08-17T15:16:27;25.00;99.90
6355;DHT22;3210;48.708;9.030;2023-08-17T15:18:55;24.80;99.90
6355;DHT22;3210;48.708;9.030;2023-08-17T15:21:22;24.90;99.90
6355;DHT22;3210;48.708;9.030;2023-08-17T15:23:49;24.80;99.90
6355;DHT22;3210;48.708;9.030;2023-08-17T15:26:15;24.70;99.90
6355;DHT22;3210;48.708;9.030;2023-08-17T15:28:42;25.00;99.90
6355;DHT22;3210;48.708;9.030;2023-08-17T15:31:09;25.20;99.90
6355;DHT22;3210;48.708;9.030;2023-08-17T15:33:41;25.40;99.90
6355;DHT22;3210;48.708;9.030;2023-08-17T15:36:08;25.60;99.90
6355;DHT22;3210;48.708;9.030;2023-08-17T15:38:34;25.70;99.90
6355;DHT22;3210;48.708;9.030;2023-08-17T15:41:01;25.80;99.90
6355;DHT22;3210;48.708;9.030;2023-08-17T15:43:29;25.90;99.90
6355;DHT22;3210;48.708;9.030;2023-08-17T15:45:55;25.90;90.90
6355;DHT22;3210;48.708;9.030;2023-08-17T15:48:22;26.00;74.90
6355;DHT22;3210;48.708;9.030;2023-08-17T15:50:50;26.10;56.60
6355;DHT22;3210;48.708;9.030;2023-08-17T15:53:17;26.10;99.90
6355;DHT22;3210;48.708;9.030;2023-08-17T15:55:47;26.20;99.90
6355;DHT22;3210;48.708;9.030;2023-08-17T15:58:23;26.30;99.90
6355;DHT22;3210;48.708;9.030;2023-08-17T16:00:49;26.40;80.40
6355;DHT22;3210;48.708;9.030;2023-08-17T16:03:16;26.60;29.20
6355;DHT22;3210;48.708;9.030;2023-08-17T16:05:43;26.60;92.40
6355;DHT22;3210;48.708;9.030;2023-08-17T16:08:11;26.50;65.50
6355;DHT22;3210;48.708;9.030;2023-08-17T16:10:38;26.60;37.70
6355;DHT22;3210;48.708;9.030;2023-08-17T16:13:06;26.70;27.00